createdAt,value
2023-11-23T00:01:38.930Z,1.03
2023-11-23T00:04:06.719Z,0.98
2023-11-23T00:06:34.591Z,0.78
2023-11-23T00:09:01.942Z,0.87
2023-11-23T00:11:29.635Z,0.74
2023-11-23T00:13:57.823Z,0.75
2023-11-23T00:16:25.200Z,0.76
2023-11-23T00:18:53.385Z,0.94
2023-11-23T00:21:20.728Z,0.79
2023-11-23T00:23:48.096Z,0.74
2023-11-23T00:26:16.204Z,0.71
2023-11-23T00:28:45.760Z,0.60
2023-11-23T00:31:14.467Z,0.60
2023-11-23T00:33:42.308Z,0.63
2023-11-23T00:36:10.615Z,0.63
2023-11-23T00:38:42.302Z,0.69
2023-11-23T00:41:12.115Z,0.66
2023-11-23T00:43:39.936Z,0.64
2023-11-23T00:46:07.422Z,0.76
2023-11-23T00:48:35.880Z,0.69
2023-11-23T00:51:04.279Z,0.71
2023-11-23T00:53:31.811Z,0.66
2023-11-23T00:55:59.860Z,0.62
2023-11-23T00:58:27.138Z,0.56
2023-11-23T01:00:57.376Z,0.50
2023-11-23T01:03:26.071Z,0.46
2023-11-23T01:05:54.942Z,0.44
2023-11-23T01:08:22.241Z,0.43
2023-11-23T01:10:50.241Z,0.35
2023-11-23T01:13:19.169Z,0.45
2023-11-23T01:15:46.582Z,0.50
2023-11-23T01:18:14.217Z,0.55
2023-11-23T01:20:42.076Z,0.49
2023-11-23T01:23:09.882Z,0.47
2023-11-23T01:25:38.060Z,0.40
2023-11-23T01:28:05.520Z,0.35
2023-11-23T01:30:33.614Z,0.34
2023-11-23T01:33:01.280Z,0.29
2023-11-23T01:35:29.077Z,0.38
2023-11-23T01:37:56.366Z,0.40
2023-11-23T01:40:24.469Z,0.51
2023-11-23T01:42:51.785Z,0.58
2023-11-23T01:45:19.194Z,0.66
2023-11-23T01:47:47.339Z,0.73
2023-11-23T01:50:15.628Z,0.89
2023-11-23T01:52:43.429Z,1.02
2023-11-23T01:55:11.007Z,1.07
2023-11-23T01:57:41.898Z,1.17
2023-11-23T02:00:10.143Z,1.30
2023-11-23T02:02:39.489Z,1.35
2023-11-23T02:05:07.898Z,1.39
2023-11-23T02:07:35.687Z,1.43
2023-11-23T02:10:04.866Z,1.42
2023-11-23T02:12:34.198Z,1.55
2023-11-23T02:15:01.915Z,1.58
2023-11-23T02:17:33.402Z,1.51
2023-11-23T02:20:01.261Z,1.53
2023-11-23T02:22:29.765Z,1.49
2023-11-23T02:24:57.102Z,1.32
2023-11-23T02:27:24.365Z,1.35
2023-11-23T02:29:51.967Z,1.36
2023-11-23T02:32:20.290Z,1.39
2023-11-23T02:34:48.165Z,1.51
2023-11-23T02:37:17.792Z,1.64
2023-11-23T02:39:47.376Z,1.66
2023-11-23T02:42:14.720Z,1.70
2023-11-23T02:44:42.514Z,1.69
2023-11-23T02:47:09.954Z,1.77
2023-11-23T02:49:37.908Z,1.75
2023-11-23T02:52:06.122Z,1.71
2023-11-23T02:54:34.016Z,1.74
2023-11-23T02:57:01.837Z,1.40
2023-11-23T02:59:29.471Z,1.50
2023-11-23T03:01:59.811Z,1.33
2023-11-23T03:04:27.314Z,1.19
2023-11-23T03:06:55.983Z,1.25
2023-11-23T03:09:24.611Z,1.28
2023-11-23T03:11:52.527Z,1.35
2023-11-23T03:14:20.274Z,1.43
2023-11-23T03:16:49.411Z,1.53
2023-11-23T03:19:19.041Z,1.57
2023-11-23T03:21:47.116Z,1.66
2023-11-23T03:24:14.982Z,1.51
2023-11-23T03:26:42.853Z,1.54
2023-11-23T03:29:12.076Z,1.77
2023-11-23T03:31:42.418Z,1.70
2023-11-23T03:34:10.638Z,1.82
2023-11-23T03:36:39.363Z,1.92
2023-11-23T03:39:10.944Z,1.94
2023-11-23T03:41:38.565Z,1.96
2023-11-23T03:44:05.907Z,1.89
2023-11-23T03:46:33.671Z,1.79
2023-11-23T03:49:01.260Z,1.56
2023-11-23T03:51:32.642Z,1.68
2023-11-23T03:54:02.405Z,1.70
2023-11-23T03:56:31.413Z,1.60
2023-11-23T03:58:58.752Z,1.63
2023-11-23T04:01:26.103Z,1.59
2023-11-23T04:03:53.860Z,1.56
2023-11-23T04:06:21.795Z,1.53
2023-11-23T04:08:49.850Z,1.31
2023-11-23T04:11:17.999Z,1.19
2023-11-23T04:13:55.351Z,0.99
2023-11-23T04:16:22.994Z,0.86
2023-11-23T04:18:50.274Z,0.80
2023-11-23T04:21:17.606Z,0.74
2023-11-23T04:23:47.185Z,0.69
2023-11-23T04:26:14.507Z,0.63
2023-11-23T04:28:41.781Z,0.64
2023-11-23T04:31:09.915Z,0.59
2023-11-23T04:33:37.505Z,0.69
2023-11-23T04:36:12.386Z,0.73
2023-11-23T04:38:40.663Z,0.75
2023-11-23T04:41:07.960Z,0.77
2023-11-23T04:43:36.133Z,0.67
2023-11-23T04:46:03.890Z,0.63
2023-11-23T04:48:31.788Z,0.67
2023-11-23T04:50:59.688Z,0.62
2023-11-23T04:53:31.176Z,0.56
2023-11-23T04:55:58.952Z,0.58
2023-11-23T04:58:28.115Z,0.61
2023-11-23T05:00:56.525Z,0.67
2023-11-23T05:03:24.832Z,0.80
2023-11-23T05:05:53.890Z,0.85
2023-11-23T05:08:21.766Z,0.88
2023-11-23T05:10:49.618Z,1.00
2023-11-23T05:13:17.743Z,0.89
2023-11-23T05:15:45.537Z,0.94
2023-11-23T05:18:15.301Z,1.05
2023-11-23T05:20:43.446Z,1.15
2023-11-23T05:23:11.291Z,1.22
2023-11-23T05:25:39.243Z,1.27
2023-11-23T05:28:10.731Z,1.21
2023-11-23T05:30:39.910Z,1.33
2023-11-23T05:33:08.719Z,1.35
2023-11-23T05:35:37.986Z,0.91
2023-11-23T05:38:06.851Z,0.90
2023-11-23T05:40:36.228Z,1.04
2023-11-23T05:43:06.189Z,1.08
2023-11-23T05:45:35.242Z,1.05
2023-11-23T05:48:04.195Z,1.07
2023-11-23T05:50:31.554Z,1.05
2023-11-23T05:52:59.246Z,0.96
2023-11-23T05:55:26.699Z,1.03
2023-11-23T05:57:57.508Z,0.90
2023-11-23T06:00:26.113Z,0.74
2023-11-23T06:02:53.970Z,0.78
2023-11-23T06:05:21.334Z,0.81
2023-11-23T06:07:48.671Z,0.88
2023-11-23T06:10:16.527Z,0.75
2023-11-23T06:12:44.348Z,0.68
2023-11-23T06:15:12.240Z,0.88
2023-11-23T06:17:47.711Z,0.94
2023-11-23T06:20:15.521Z,0.88
2023-11-23T06:22:43.612Z,0.99
2023-11-23T06:25:13.583Z,0.99
2023-11-23T06:27:41.428Z,0.98
2023-11-23T06:30:10.913Z,0.86
2023-11-23T06:32:38.803Z,0.88
2023-11-23T06:35:08.401Z,0.95
2023-11-23T06:37:36.656Z,0.89
2023-11-23T06:40:04.621Z,0.92
2023-11-23T06:42:33.528Z,1.05
2023-11-23T06:45:02.683Z,0.88
2023-11-23T06:47:31.212Z,0.98
2023-11-23T06:49:58.777Z,0.90
2023-11-23T06:52:27.149Z,0.98
2023-11-23T06:54:54.460Z,0.89
2023-11-23T06:57:24.083Z,0.62
2023-11-23T06:59:56.455Z,0.61
2023-11-23T07:02:29.514Z,0.72
2023-11-23T07:04:57.851Z,0.68
2023-11-23T07:07:26.000Z,0.66
2023-11-23T07:09:55.874Z,0.75
2023-11-23T07:12:24.180Z,0.77
2023-11-23T07:14:53.389Z,0.82
2023-11-23T07:17:22.143Z,0.99
2023-11-23T07:19:50.417Z,1.19
2023-11-23T07:22:18.236Z,1.42
2023-11-23T07:24:46.044Z,1.44
2023-11-23T07:27:14.351Z,1.31
2023-11-23T07:29:41.644Z,1.32
2023-11-23T07:32:10.409Z,1.36
2023-11-23T07:34:41.707Z,1.41
2023-11-23T07:37:11.361Z,1.42
2023-11-23T07:39:39.485Z,1.48
2023-11-23T07:42:09.026Z,1.52
2023-11-23T07:44:38.341Z,1.70
2023-11-23T07:47:10.141Z,1.75
2023-11-23T07:49:38.051Z,2.05
2023-11-23T07:52:05.736Z,2.08
2023-11-23T07:54:33.580Z,1.99
2023-11-23T07:57:01.381Z,2.09
2023-11-23T07:59:30.488Z,2.27
2023-11-23T08:01:58.816Z,2.04
2023-11-23T08:04:30.052Z,2.26
2023-11-23T08:07:00.560Z,3.09
2023-11-23T08:09:29.134Z,3.28
2023-11-23T08:11:58.404Z,3.46
2023-11-23T08:14:26.346Z,3.55
2023-11-23T08:16:56.139Z,3.50
2023-11-23T08:19:26.521Z,3.65
2023-11-23T08:21:54.203Z,3.51
2023-11-23T08:24:28.859Z,3.19
2023-11-23T08:27:07.314Z,3.06
2023-11-23T08:29:37.013Z,3.38
2023-11-23T08:32:04.953Z,3.41
2023-11-23T08:34:32.367Z,3.32
2023-11-23T08:36:59.693Z,3.30
2023-11-23T08:39:41.267Z,3.61
2023-11-23T08:42:12.127Z,3.51
2023-11-23T08:44:41.357Z,3.68
2023-11-23T08:47:13.058Z,3.66
2023-11-23T08:49:42.509Z,3.99
2023-11-23T08:52:09.878Z,4.02
2023-11-23T08:54:40.317Z,3.66
2023-11-23T08:57:08.633Z,3.69
2023-11-23T08:59:38.774Z,3.63
2023-11-23T09:02:17.167Z,3.57
2023-11-23T09:04:49.328Z,3.78
2023-11-23T09:07:21.271Z,4.44
2023-11-23T09:09:49.078Z,4.34
2023-11-23T09:12:18.134Z,4.48
2023-11-23T09:14:49.515Z,4.66
2023-11-23T09:17:20.589Z,4.73
2023-11-23T09:19:49.847Z,4.98
2023-11-23T09:22:18.364Z,5.05
2023-11-23T09:24:46.501Z,4.96
2023-11-23T09:27:16.518Z,5.05
2023-11-23T09:29:43.810Z,4.86
2023-11-23T09:32:12.245Z,4.70
2023-11-23T09:34:41.693Z,4.49
2023-11-23T09:37:09.610Z,4.72
2023-11-23T09:39:39.827Z,5.05
2023-11-23T09:42:09.875Z,5.04
2023-11-23T09:44:39.150Z,4.59
2023-11-23T09:47:07.128Z,4.69
2023-11-23T09:49:36.703Z,4.62
2023-11-23T09:52:05.343Z,4.64
2023-11-23T09:54:34.200Z,5.02
2023-11-23T09:57:03.934Z,5.11
2023-11-23T09:59:32.165Z,5.14
2023-11-23T10:02:06.545Z,5.01
2023-11-23T10:04:35.165Z,5.25
2023-11-23T10:07:04.018Z,5.12
2023-11-23T10:09:35.018Z,5.09
2023-11-23T10:12:03.833Z,5.06
2023-11-23T10:14:31.435Z,4.97
2023-11-23T10:16:58.736Z,4.84
2023-11-23T10:19:26.416Z,4.68
2023-11-23T10:22:00.462Z,4.68
2023-11-23T10:24:30.879Z,4.81
2023-11-23T10:26:59.778Z,4.85
2023-11-23T10:29:30.321Z,4.82
2023-11-23T10:32:01.656Z,5.00
2023-11-23T10:34:32.671Z,4.99
2023-11-23T10:37:01.047Z,5.23
2023-11-23T10:39:29.588Z,5.36
2023-11-23T10:41:58.007Z,5.36
2023-11-23T10:44:30.131Z,5.38
2023-11-23T10:47:04.525Z,5.39
2023-11-23T10:49:33.937Z,5.51
2023-11-23T10:52:06.966Z,5.62
2023-11-23T10:54:35.333Z,5.82
2023-11-23T10:57:04.262Z,5.78
2023-11-23T10:59:34.051Z,5.71
2023-11-23T11:02:02.695Z,5.79
2023-11-23T11:04:30.788Z,5.71
2023-11-23T11:06:58.724Z,5.51
2023-11-23T11:09:30.343Z,5.65
2023-11-23T11:12:01.745Z,5.78
2023-11-23T11:14:33.945Z,5.88
2023-11-23T11:17:03.252Z,5.82
2023-11-23T11:19:41.799Z,6.14
2023-11-23T11:22:15.332Z,6.09
2023-11-23T11:24:46.276Z,6.03
2023-11-23T11:27:19.668Z,6.08
2023-11-23T11:29:52.919Z,6.12
2023-11-23T11:32:32.547Z,6.16
2023-11-23T11:35:02.229Z,6.21
2023-11-23T11:37:31.061Z,6.54
2023-11-23T11:39:58.818Z,6.86
2023-11-23T11:42:26.441Z,7.13
2023-11-23T11:44:54.944Z,7.23
2023-11-23T11:47:24.837Z,7.50
2023-11-23T11:49:53.440Z,7.24
2023-11-23T11:52:22.013Z,7.11
2023-11-23T11:54:50.908Z,7.33
2023-11-23T11:57:19.880Z,7.38
2023-11-23T11:59:47.950Z,7.47
2023-11-23T12:02:16.069Z,7.68
2023-11-23T12:04:44.680Z,7.75
2023-11-23T12:07:17.903Z,7.74
2023-11-23T12:09:47.759Z,8.05
2023-11-23T12:12:16.912Z,8.07
2023-11-23T12:14:45.239Z,7.60
2023-11-23T12:17:13.899Z,7.87
2023-11-23T12:19:54.561Z,8.12
2023-11-23T12:22:27.811Z,8.06
2023-11-23T12:25:00.422Z,7.95
2023-11-23T12:27:28.878Z,7.64
2023-11-23T12:29:56.321Z,7.33
2023-11-23T12:32:25.187Z,7.04
2023-11-23T12:34:52.910Z,7.08
2023-11-23T12:37:20.427Z,7.12
2023-11-23T12:39:51.147Z,7.16
2023-11-23T12:42:18.852Z,7.26
2023-11-23T12:44:47.583Z,7.27
2023-11-23T12:47:15.621Z,7.27
2023-11-23T12:49:46.741Z,7.40
2023-11-23T12:52:14.078Z,7.40
2023-11-23T12:54:43.727Z,7.30
2023-11-23T12:57:13.276Z,7.33
2023-11-23T12:59:42.214Z,7.55
2023-11-23T13:02:10.535Z,7.29
2023-11-23T13:04:42.212Z,7.11
2023-11-23T13:07:09.652Z,6.96
2023-11-23T13:09:37.694Z,6.96
2023-11-23T13:12:05.557Z,7.19
2023-11-23T13:14:34.333Z,7.27
2023-11-23T13:17:01.945Z,7.51
2023-11-23T13:19:37.655Z,7.92
2023-11-23T13:22:11.913Z,8.08
2023-11-23T13:24:40.727Z,7.77
2023-11-23T13:27:10.856Z,7.77
2023-11-23T13:29:38.535Z,7.56
2023-11-23T13:32:06.569Z,7.35
2023-11-23T13:34:35.333Z,7.49
2023-11-23T13:37:05.681Z,7.75
2023-11-23T13:39:37.033Z,7.70
2023-11-23T13:42:10.576Z,7.44
2023-11-23T13:44:39.078Z,7.60
2023-11-23T13:47:07.837Z,7.82
2023-11-23T13:49:36.806Z,7.68
2023-11-23T13:52:05.758Z,7.79
2023-11-23T13:54:45.413Z,7.89
2023-11-23T13:57:15.833Z,7.71
2023-11-23T13:59:43.234Z,7.68
2023-11-23T14:02:11.723Z,7.71
2023-11-23T14:04:44.300Z,7.68
2023-11-23T14:07:12.958Z,7.60
2023-11-23T14:09:41.510Z,7.87
2023-11-23T14:12:13.797Z,8.07
2023-11-23T14:14:42.982Z,7.89
2023-11-23T14:17:13.853Z,7.82
2023-11-23T14:19:44.437Z,7.73
2023-11-23T14:22:11.897Z,7.52
2023-11-23T14:24:40.248Z,7.32
2023-11-23T14:27:11.140Z,7.75
2023-11-23T14:29:39.308Z,7.49
2023-11-23T14:32:08.387Z,7.41
2023-11-23T14:34:37.036Z,7.51
2023-11-23T14:37:05.815Z,7.23
2023-11-23T14:39:33.274Z,7.35
2023-11-23T14:42:02.029Z,7.48
2023-11-23T14:44:29.882Z,7.25
2023-11-23T14:46:57.222Z,7.18
2023-11-23T14:49:31.746Z,7.12
2023-11-23T14:51:59.082Z,7.09
2023-11-23T14:54:34.666Z,7.04
2023-11-23T14:57:06.008Z,6.92
2023-11-23T14:59:37.156Z,6.88
2023-11-23T15:02:04.813Z,6.88
2023-11-23T15:04:34.654Z,6.67
2023-11-23T15:07:03.601Z,6.78
2023-11-23T15:09:32.380Z,6.68
2023-11-23T15:12:01.059Z,6.94
2023-11-23T15:14:29.444Z,6.97
2023-11-23T15:16:57.157Z,6.98
2023-11-23T15:19:24.535Z,6.97
2023-11-23T15:21:53.173Z,6.84
2023-11-23T15:24:22.257Z,6.70
2023-11-23T15:26:49.799Z,6.56
2023-11-23T15:29:18.944Z,6.24
2023-11-23T15:31:49.079Z,5.97
2023-11-23T15:34:18.653Z,5.80
2023-11-23T15:36:46.264Z,5.82
2023-11-23T15:39:15.299Z,5.93
2023-11-23T15:41:42.986Z,5.61
2023-11-23T15:44:11.446Z,5.76
2023-11-23T15:46:41.993Z,5.55
2023-11-23T15:49:15.051Z,5.42
2023-11-23T15:51:44.423Z,5.57
2023-11-23T15:54:13.857Z,5.61
2023-11-23T15:56:42.672Z,5.52
2023-11-23T15:59:10.585Z,5.57
2023-11-23T16:01:41.252Z,5.69
2023-11-23T16:04:11.375Z,5.62
2023-11-23T16:06:38.929Z,5.69
2023-11-23T16:09:16.921Z,5.77
2023-11-23T16:11:45.684Z,5.65
2023-11-23T16:14:13.097Z,5.66
2023-11-23T16:16:42.579Z,5.59
2023-11-23T16:19:11.158Z,5.52
2023-11-23T16:21:39.336Z,5.47
2023-11-23T16:24:11.549Z,5.29
2023-11-23T16:26:39.269Z,5.18
2023-11-23T16:29:11.421Z,5.31
2023-11-23T16:31:43.606Z,5.24
2023-11-23T16:34:14.300Z,5.06
2023-11-23T16:36:43.097Z,5.10
2023-11-23T16:39:16.650Z,5.36
2023-11-23T16:41:45.181Z,5.25
2023-11-23T16:44:13.450Z,5.17
2023-11-23T16:46:44.346Z,4.88
2023-11-23T16:49:16.786Z,4.78
2023-11-23T16:51:44.360Z,4.76
2023-11-23T16:56:43.074Z,5.03
2023-11-23T16:59:12.079Z,5.09
2023-11-23T17:01:42.108Z,5.16
2023-11-23T17:04:11.197Z,5.15
2023-11-23T17:06:41.627Z,5.09
2023-11-23T17:09:10.999Z,4.95
2023-11-23T17:11:41.601Z,4.95
2023-11-23T17:14:12.517Z,4.84
2023-11-23T17:16:44.126Z,4.81
2023-11-23T17:19:13.908Z,4.75
2023-11-23T17:21:49.815Z,4.73
2023-11-23T17:24:17.740Z,4.80
2023-11-23T17:26:45.686Z,4.81
2023-11-23T17:29:12.999Z,4.57
2023-11-23T17:31:43.216Z,4.59
2023-11-23T17:34:13.214Z,4.58
2023-11-23T17:36:40.981Z,4.54
2023-11-23T17:39:17.431Z,4.23
2023-11-23T17:41:46.129Z,4.07
2023-11-23T17:44:14.050Z,4.14
2023-11-23T17:46:41.407Z,4.14
2023-11-23T17:49:09.963Z,4.01
2023-11-23T17:51:40.143Z,3.97
2023-11-23T17:54:07.529Z,4.01
2023-11-23T17:56:42.209Z,4.17
2023-11-23T17:59:25.822Z,4.27
2023-11-23T18:02:04.642Z,4.25
2023-11-23T18:04:32.512Z,4.30
2023-11-23T18:07:02.451Z,4.40
2023-11-23T18:09:31.680Z,4.35
2023-11-23T18:12:01.646Z,4.24
2023-11-23T18:14:30.255Z,4.20
2023-11-23T18:16:57.807Z,4.19
2023-11-23T18:19:25.417Z,4.06
2023-11-23T18:21:52.756Z,4.01
2023-11-23T18:24:22.747Z,4.16
2023-11-23T18:26:50.484Z,4.14
2023-11-23T18:29:17.919Z,3.97
2023-11-23T18:31:45.754Z,3.87
2023-11-23T18:34:15.648Z,3.78
2023-11-23T18:36:51.135Z,3.78
2023-11-23T18:39:24.211Z,3.69
2023-11-23T18:41:52.074Z,3.63
2023-11-23T18:44:19.621Z,3.57
2023-11-23T18:46:46.981Z,3.54
2023-11-23T18:49:15.360Z,3.50
2023-11-23T18:51:42.990Z,3.47
2023-11-23T18:54:12.731Z,3.45
2023-11-23T18:56:45.302Z,3.55
2023-11-23T18:59:12.923Z,3.52
2023-11-23T19:01:40.936Z,3.45
2023-11-23T19:04:08.552Z,3.52
2023-11-23T19:06:36.270Z,3.44
2023-11-23T19:09:14.093Z,3.43
2023-11-23T19:11:42.755Z,3.42
2023-11-23T19:14:10.225Z,3.41
2023-11-23T19:16:37.548Z,3.41
2023-11-23T19:19:08.019Z,3.33
2023-11-23T19:21:35.738Z,3.31
2023-11-23T19:24:03.997Z,3.34
2023-11-23T19:26:31.773Z,3.33
2023-11-23T19:29:03.727Z,3.36
2023-11-23T19:31:32.014Z,3.25
2023-11-23T19:34:05.326Z,3.37
2023-11-23T19:36:35.677Z,3.28
2023-11-23T19:39:03.868Z,3.28
2023-11-23T19:41:32.040Z,3.29
2023-11-23T19:44:02.539Z,3.26
2023-11-23T19:46:37.119Z,3.28
2023-11-23T19:49:08.743Z,3.25
2023-11-23T19:51:37.392Z,3.22
2023-11-23T19:54:06.290Z,3.17
2023-11-23T19:56:34.850Z,3.11
2023-11-23T19:59:05.736Z,3.24
2023-11-23T20:01:34.065Z,3.26
2023-11-23T20:04:01.839Z,3.24
2023-11-23T20:06:29.313Z,3.27
2023-11-23T20:08:57.107Z,3.42
2023-11-23T20:11:24.952Z,3.44
2023-11-23T20:13:52.422Z,3.43
2023-11-23T20:16:33.333Z,3.26
2023-11-23T20:19:02.635Z,3.17
2023-11-23T20:21:30.010Z,3.08
2023-11-23T20:24:01.537Z,3.05
2023-11-23T20:26:35.764Z,3.13
2023-11-23T20:29:03.556Z,3.20
2023-11-23T20:31:37.951Z,3.20
2023-11-23T20:34:06.795Z,3.18
2023-11-23T20:36:34.435Z,3.17
2023-11-23T20:39:03.496Z,3.17
2023-11-23T20:41:32.129Z,3.06
2023-11-23T20:43:59.675Z,3.08
2023-11-23T20:46:27.011Z,3.15
2023-11-23T20:48:57.013Z,3.03
2023-11-23T20:51:24.705Z,2.92
2023-11-23T20:53:53.653Z,2.97
2023-11-23T20:56:25.952Z,2.89
2023-11-23T20:58:55.743Z,2.87
2023-11-23T21:01:25.394Z,2.89
2023-11-23T21:03:53.097Z,2.93
2023-11-23T21:06:26.281Z,3.02
2023-11-23T21:09:04.228Z,2.98
2023-11-23T21:11:31.846Z,3.11
2023-11-23T21:13:59.121Z,3.04
2023-11-23T21:16:29.492Z,3.02
2023-11-23T21:18:58.009Z,3.04
2023-11-23T21:21:25.493Z,2.95
2023-11-23T21:23:54.293Z,2.86
2023-11-23T21:26:21.903Z,2.81
2023-11-23T21:28:51.011Z,2.81
2023-11-23T21:31:18.300Z,2.75
2023-11-23T21:33:47.895Z,2.85
2023-11-23T21:36:15.234Z,2.80
2023-11-23T21:38:42.539Z,2.73
2023-11-23T21:41:16.408Z,2.74
2023-11-23T21:43:44.259Z,2.74
2023-11-23T21:46:18.763Z,2.76
2023-11-23T21:48:46.852Z,2.61
2023-11-23T21:51:24.175Z,2.66
2023-11-23T21:53:51.688Z,2.61
2023-11-23T21:56:20.030Z,2.66
2023-11-23T21:58:47.312Z,2.63
2023-11-23T22:01:14.632Z,2.66
2023-11-23T22:03:42.259Z,2.77
2023-11-23T22:06:10.507Z,2.67
2023-11-23T22:08:37.851Z,2.65
2023-11-23T22:11:07.662Z,2.61
2023-11-23T22:13:36.923Z,2.68
2023-11-23T22:16:04.982Z,2.72
2023-11-23T22:18:32.575Z,2.70
2023-11-23T22:20:59.946Z,2.73
2023-11-23T22:23:27.708Z,2.70
2023-11-23T22:25:55.143Z,2.69
2023-11-23T22:28:22.934Z,2.64
2023-11-23T22:30:50.901Z,2.62
2023-11-23T22:33:18.334Z,2.66
2023-11-23T22:35:45.851Z,2.60
2023-11-23T22:38:15.710Z,2.59
2023-11-23T22:40:43.595Z,2.62
2023-11-23T22:43:11.042Z,2.58
2023-11-23T22:45:40.192Z,2.52
2023-11-23T22:48:07.606Z,2.40
2023-11-23T22:50:34.917Z,2.44
2023-11-23T22:53:02.552Z,2.36
2023-11-23T22:55:29.972Z,2.31
2023-11-23T22:57:57.354Z,2.30
2023-11-23T23:00:37.280Z,2.27
2023-11-23T23:03:05.100Z,2.32
2023-11-23T23:05:33.138Z,2.43
2023-11-23T23:08:03.570Z,2.32
2023-11-23T23:10:31.805Z,2.31
2023-11-23T23:12:59.539Z,2.36
2023-11-23T23:15:27.151Z,2.46
2023-11-23T23:17:55.754Z,2.45
2023-11-23T23:20:23.574Z,2.47
2023-11-23T23:22:52.079Z,2.42
2023-11-23T23:25:19.385Z,2.46
2023-11-23T23:27:47.035Z,2.48
2023-11-23T23:30:14.367Z,2.44
2023-11-23T23:32:42.358Z,2.56
2023-11-23T23:35:10.906Z,2.75
2023-11-23T23:37:39.248Z,2.87
2023-11-23T23:40:08.405Z,2.83
2023-11-23T23:42:51.027Z,2.71
2023-11-23T23:45:18.791Z,2.76
2023-11-23T23:47:46.474Z,2.71
2023-11-23T23:50:13.994Z,2.87
2023-11-23T23:52:41.816Z,2.90
2023-11-23T23:55:09.615Z,2.93
2023-11-23T23:57:38.038Z,2.95
